Guapimirim, Brazil
Current Conditions -  °F | °C
As of 3:00 PM on Tuesday 27 Jan 2015 (Local Time) from SBGL Reporting Station
Few Clouds Few Clouds  
Wind Chill: 95°   Ceiling: Unl
Heat Index: 96°   Visibility: 6mi
Dew Point: 63°   Wind: 6mph
Humidity: 34%   Direction: 30°NNE
Pressure: 29.85"   Gusts: NA
Location:  22.54°S, 42.98°W
Report Text: SBGL 271700Z 03005KT 9999 FEW025 35/17 Q1011
Loading
Personal Weather Stations






























Interactive Weather Map New forecast layout! Learn more

10-Day Weather Forecast

Advertisements
Track Severe Weather on mobile